Tenacious — WDJ3009 — position and weather

sailwx.info

Track history (hours):
 
Tides and Currents Weather Stations Pressure Air Temp Water Temp Dewpoint Dewpoint Depression Visibility Wind Speed Wind Dir Waves Ship Positions

Tenacious

Owner: McCampbell, Peter, Littleton, CO. More information available from US FCC via Universal Licensing System and Coast Guard Vessel Documentation Center.

Last reported at 2017-Sep-16 23:37 UTC. Time now 2017-Sep-23 16:27 UTC.
Position N 32°38' W 117°07'.

Length 17 m; draft 2 m.

Type: Pleasure craft. MMSI: 367763920.

Date/timePositionNaut miles runAvg speedWind from/ knotsBaromVisibWave heightAir tempDewpointWater temp
2017-Sep-16 23:37N 32°38' W 117°07'6 8.3
2017-Sep-16 22:51N 32°43' W 117°12'3 7.9
2017-Sep-16 22:30N 32°40' W 117°14'3 6.7
2017-Sep-16 22:00N 32°40' W 117°18'4 8.9
2017-Sep-16 21:30N 32°43' W 117°22'4 8.7
2017-Sep-16 21:00N 32°45' W 117°26'4 8.4
2017-Sep-16 20:31N 32°48' W 117°29'4 8.3
2017-Sep-16 20:00N 32°51' W 117°33'4 8.4
2017-Sep-16 19:31N 32°54' W 117°37'4 8.5
2017-Sep-16 19:00N 32°57' W 117°41'4 8.7
2017-Sep-16 18:31N 32°59' W 117°45'4 8.5
2017-Sep-16 18:00N 33°01' W 117°49'4 8.1
2017-Sep-16 17:30N 33°03' W 117°53'4 8.0
2017-Sep-16 17:00N 33°06' W 117°57'4 7.8
2017-Sep-16 16:30N 33°09' W 118°00'4 7.8
2017-Sep-16 16:00N 33°12' W 118°04'4 8.1
2017-Sep-16 15:30N 33°14' W 118°07'11 7.9
2017-Sep-16 14:04N 33°21' W 118°18'0 7.7
2017-Sep-16 14:00N 33°21' W 118°19'1 0.1
2017-Sep-15 23:23N 33°21' W 118°20'1 1.3
2017-Sep-15 22:56N 33°21' W 118°19'18 8.0
2017-Sep-15 20:39N 33°34' W 118°34'2 8.2
2017-Sep-15 20:23N 33°35' W 118°36'3 8.3
2017-Sep-15 20:00N 33°38' W 118°39'4 8.1
2017-Sep-15 19:30N 33°41' W 118°42'4 8.2
2017-Sep-15 19:00N 33°43' W 118°46'4 8.1
2017-Sep-15 18:30N 33°46' W 118°50'4 8.2
2017-Sep-15 18:00N 33°49' W 118°53'4 8.3
2017-Sep-15 17:29N 33°52' W 118°57'4 8.6
2017-Sep-15 17:00N 33°55' W 119°00'4 7.6
2017-Sep-15 16:31N 33°57' W 119°04'4 8.3
2017-Sep-15 16:00N 34°00' W 119°08'4 8.2
2017-Sep-15 15:30N 34°03' W 119°11'4 7.9
2017-Sep-15 15:00N 34°07' W 119°13'4 7.4
2017-Sep-15 14:28N 34°10' W 119°15'4 8.0
2017-Sep-15 14:00N 34°14' W 119°17'1 2.5
2017-Sep-15 13:30N 34°15' W 119°16'0 0.0
2017-Sep-15 12:56N 34°15' W 119°16'0 0.0
2017-Sep-15 12:30N 34°15' W 119°16'0 0.0
2017-Sep-15 12:00N 34°15' W 119°16'0 0.0
2017-Sep-15 11:30N 34°15' W 119°16'0 0.0
2017-Sep-15 11:00N 34°15' W 119°16'0 0.0
2017-Sep-15 10:30N 34°15' W 119°16'0 0.0
2017-Sep-15 09:57N 34°15' W 119°16'0 0.0
2017-Sep-15 09:29N 34°15' W 119°16'0 0.0
2017-Sep-15 08:59N 34°15' W 119°16'0 0.0
2017-Sep-15 08:28N 34°15' W 119°16'0 0.0
2017-Sep-15 07:57N 34°15' W 119°16'0 0.0
2017-Sep-15 07:25N 34°15' W 119°16'0 0.0
2017-Sep-15 06:59N 34°15' W 119°16'0 0.0
2017-Sep-15 06:25N 34°15' W 119°16'0 0.0
2017-Sep-15 05:58N 34°15' W 119°16'0 0.0
2017-Sep-15 05:30N 34°15' W 119°16'0 0.0
2017-Sep-15 04:56N 34°15' W 119°16'0 0.0
2017-Sep-15 04:28N 34°15' W 119°16'0 0.0
2017-Sep-15 03:54N 34°15' W 119°16'0 0.0
2017-Sep-15 03:26N 34°15' W 119°16'0 0.0
2017-Sep-15 02:58N 34°15' W 119°16'0 0.0
2017-Sep-15 02:29N 34°15' W 119°16'0 0.0
2017-Sep-15 02:00N 34°15' W 119°16'0 0.0
2017-Sep-15 01:28N 34°15' W 119°16'0 0.0
2017-Sep-15 01:01N 34°15' W 119°16'0 0.0
2017-Sep-15 00:29N 34°15' W 119°16'0 0.0
2017-Sep-14 23:42N 34°15' W 119°16'0 0.0
2017-Sep-14 23:29N 34°15' W 119°16'0 0.0
2017-Sep-14 22:56N 34°15' W 119°16'0 0.0
2017-Sep-14 22:18N 34°15' W 119°16'0 0.0
2017-Sep-14 22:00N 34°15' W 119°16'0 0.0
2017-Sep-14 21:18N 34°15' W 119°16'0 0.0
2017-Sep-14 20:51N 34°15' W 119°16'0 0.0
2017-Sep-14 20:27N 34°15' W 119°16'0 0.0
2017-Sep-14 20:00N 34°15' W 119°16'0 0.0
2017-Sep-14 19:24N 34°15' W 119°16'0 0.0
2017-Sep-14 18:57N 34°15' W 119°16'0 0.0
2017-Sep-14 18:30N 34°15' W 119°16'0 0.0
2017-Sep-14 18:00N 34°15' W 119°16'0 0.0
2017-Sep-14 17:24N 34°15' W 119°16'0 0.0
2017-Sep-14 16:50N 34°15' W 119°16'0 0.0
2017-Sep-14 16:28N 34°15' W 119°16'0 0.0
2017-Sep-14 16:00N 34°15' W 119°16'0 0.0
2017-Sep-14 15:25N 34°15' W 119°16'0 0.0
2017-Sep-14 15:01N 34°15' W 119°16'0 0.0
2017-Sep-14 14:29N 34°15' W 119°16'0 0.0
2017-Sep-14 13:26N 34°15' W 119°16'0 0.0
2017-Sep-14 12:53N 34°15' W 119°16'0 0.0
2017-Sep-14 12:29N 34°15' W 119°16'0 0.0
2017-Sep-14 11:54N 34°15' W 119°16'0 0.0
2017-Sep-14 11:30N 34°15' W 119°16'0 0.0
2017-Sep-14 10:57N 34°15' W 119°16'0 0.0
2017-Sep-14 10:30N 34°15' W 119°16'0 0.0
2017-Sep-14 10:00N 34°15' W 119°16'0 0.0
2017-Sep-14 09:30N 34°15' W 119°16'0 0.0
2017-Sep-14 08:55N 34°15' W 119°16'0 0.0
2017-Sep-14 08:30N 34°15' W 119°16'0 0.0
2017-Sep-14 08:00N 34°15' W 119°16'0 0.0
2017-Sep-14 07:27N 34°15' W 119°16'0 0.0
2017-Sep-14 07:00N 34°15' W 119°16'0 0.0
2017-Sep-14 06:27N 34°15' W 119°16'0 0.0
2017-Sep-14 06:00N 34°15' W 119°16'0 0.0
2017-Sep-14 05:30N 34°15' W 119°16'0 0.0
2017-Sep-14 04:51N 34°15' W 119°16'0 0.0
2017-Sep-14 04:28N 34°15' W 119°16'0 0.0
2017-Sep-14 03:59N 34°15' W 119°16'0 0.0
2017-Sep-14 03:04N 34°15' W 119°16'0 0.0
2017-Sep-14 03:00N 34°15' W 119°16'0 0.0
2017-Sep-14 02:30N 34°15' W 119°16'0 0.0
2017-Sep-14 01:57N 34°15' W 119°16'0 0.0
2017-Sep-14 01:25N 34°15' W 119°16'0 0.0
2017-Sep-14 01:00N 34°15' W 119°16'0 0.0
2017-Sep-14 00:30N 34°15' W 119°16'0 0.0
2017-Sep-14 00:00N 34°15' W 119°16'0 0.0
2017-Sep-13 23:25N 34°15' W 119°16'0 0.0
2017-Sep-13 22:49N 34°15' W 119°16'0 0.0
2017-Sep-13 22:29N 34°15' W 119°16'0 0.0
2017-Sep-13 21:58N 34°15' W 119°16'0 0.0
2017-Sep-13 21:28N 34°15' W 119°16'0 0.0
2017-Sep-13 20:59N 34°15' W 119°16'0 0.0
2017-Sep-13 20:27N 34°15' W 119°16'0 0.0
2017-Sep-13 19:58N 34°15' W 119°16'0 0.0
2017-Sep-13 19:30N 34°15' W 119°16'0 0.0
2017-Sep-13 18:57N 34°15' W 119°16'0 0.0
2017-Sep-13 18:31N 34°15' W 119°16'0 0.0
2017-Sep-13 17:59N 34°15' W 119°16'0 0.0
2017-Sep-13 17:30N 34°15' W 119°16'0 0.0
2017-Sep-13 16:59N 34°15' W 119°16'0 0.0
2017-Sep-13 16:30N 34°15' W 119°16'0 0.0
2017-Sep-13 15:59N 34°15' W 119°16'0 0.0
2017-Sep-13 15:24N 34°15' W 119°16'0 0.0
2017-Sep-13 14:58N 34°15' W 119°16'0 0.0
2017-Sep-13 14:30N 34°15' W 119°16'0 0.0
2017-Sep-13 14:00N 34°15' W 119°16'0 0.0
2017-Sep-13 13:30N 34°15' W 119°16'0 0.0
2017-Sep-13 13:00N 34°15' W 119°16'0 0.0
2017-Sep-13 12:30N 34°15' W 119°16'0 0.0
2017-Sep-13 12:00N 34°15' W 119°16'0 0.0
2017-Sep-13 11:28N 34°15' W 119°16'0 0.0
2017-Sep-13 10:59N 34°15' W 119°16'0 0.0
2017-Sep-13 10:30N 34°15' W 119°16'0 0.0
2017-Sep-13 09:58N 34°15' W 119°16'0 0.0
2017-Sep-13 09:26N 34°15' W 119°16'0 0.0
2017-Sep-13 08:58N 34°15' W 119°16'0 0.0
2017-Sep-13 08:30N 34°15' W 119°16'0 0.0
2017-Sep-13 08:00N 34°15' W 119°16'0 0.0
2017-Sep-13 07:24N 34°15' W 119°16'0 0.0
2017-Sep-13 06:58N 34°15' W 119°16'0 0.0
2017-Sep-13 06:30N 34°15' W 119°16'0 0.0
2017-Sep-13 05:58N 34°15' W 119°16'0 0.0
2017-Sep-13 05:29N 34°15' W 119°16'0 0.0
2017-Sep-13 05:00N 34°15' W 119°16'0 0.0
2017-Sep-13 04:29N 34°15' W 119°16'0 0.0
2017-Sep-13 04:00N 34°15' W 119°16'0 0.0
2017-Sep-13 03:23N 34°15' W 119°16'0 0.0
2017-Sep-13 02:58N 34°15' W 119°16'0 0.0
2017-Sep-13 02:28N 34°15' W 119°16'0 0.0
2017-Sep-13 01:59N 34°15' W 119°16'0 0.0
2017-Sep-13 01:30N 34°15' W 119°16'0 0.0
2017-Sep-13 00:58N 34°15' W 119°16'0 0.0
2017-Sep-13 00:30N 34°15' W 119°16'0 0.0
2017-Sep-13 00:01N 34°15' W 119°16'0 0.0
2017-Sep-12 23:30N 34°15' W 119°16'0 0.0
2017-Sep-12 22:54N 34°15' W 119°16'0 0.0
2017-Sep-12 22:26N 34°15' W 119°16'0 0.0
2017-Sep-12 21:59N 34°15' W 119°16'0 0.0
2017-Sep-12 21:17N 34°15' W 119°16'0 0.0
2017-Sep-12 20:58N 34°15' W 119°16'0 0.0
2017-Sep-12 20:26N 34°15' W 119°16'0 0.0
2017-Sep-12 20:00N 34°15' W 119°16'0 0.0
2017-Sep-12 19:20N 34°15' W 119°16'0 0.0
2017-Sep-12 18:58N 34°15' W 119°16'0 0.0
2017-Sep-12 18:30N 34°15' W 119°16'0 0.0
2017-Sep-12 18:00N 34°15' W 119°16'0 0.0
2017-Sep-12 17:28N 34°15' W 119°16'0 0.0
2017-Sep-12 17:00N 34°15' W 119°16'0 0.0
2017-Sep-12 16:30N 34°15' W 119°16'0 0.0
2017-Sep-12 15:58N 34°15' W 119°16'0 0.0
2017-Sep-12 15:29N 34°15' W 119°16'0 0.0
2017-Sep-12 15:00N 34°15' W 119°16'0 0.0
2017-Sep-12 14:30N 34°15' W 119°16'0 0.0
2017-Sep-12 13:59N 34°15' W 119°16'0 0.0
2017-Sep-12 13:30N 34°15' W 119°16'0 0.0
2017-Sep-12 13:00N 34°15' W 119°16'0 0.0
2017-Sep-12 12:29N 34°15' W 119°16'0 0.0
2017-Sep-12 12:00N 34°15' W 119°16'0 0.0
2017-Sep-12 11:27N 34°15' W 119°16'0 0.0
2017-Sep-12 10:54N 34°15' W 119°16'0 0.0
2017-Sep-12 10:25N 34°15' W 119°16'0 0.0
2017-Sep-12 09:59N 34°15' W 119°16'0 0.0
2017-Sep-12 09:29N 34°15' W 119°16'0 0.0
2017-Sep-12 08:58N 34°15' W 119°16'0 0.0
2017-Sep-12 08:30N 34°15' W 119°16'0 0.0
2017-Sep-12 07:55N 34°15' W 119°16'0 0.0
2017-Sep-12 07:30N 34°15' W 119°16'0 0.0
2017-Sep-12 07:00N 34°15' W 119°16'0 0.0
2017-Sep-12 06:25N 34°15' W 119°16'0 0.0
2017-Sep-12 05:59N 34°15' W 119°16'0 0.0
2017-Sep-12 05:21N 34°15' W 119°16'0 0.0
2017-Sep-12 04:50N 34°15' W 119°16'0 0.0
2017-Sep-12 04:30N 34°15' W 119°16'0 0.0
2017-Sep-12 03:59N 34°15' W 119°16'0 0.0
2017-Sep-12 03:30N 34°15' W 119°16'0 0.0
2017-Sep-12 02:56N 34°15' W 119°16'0 0.0
2017-Sep-12 02:27N 34°15' W 119°16'0 0.0
2017-Sep-12 02:00N 34°15' W 119°16'0 0.0
2017-Sep-12 01:27N 34°15' W 119°16'0 0.0
2017-Sep-12 00:57N 34°15' W 119°16'0 0.0
2017-Sep-12 00:31N 34°15' W 119°16'0 0.0
2017-Sep-11 23:59N 34°15' W 119°16'0 0.0
2017-Sep-11 23:25N 34°15' W 119°16'0 0.0
2017-Sep-11 22:57N 34°15' W 119°16'0 0.0
2017-Sep-11 22:26N 34°15' W 119°16'0 0.0
2017-Sep-11 21:59N 34°15' W 119°16'0 0.0
2017-Sep-11 21:29N 34°15' W 119°16'0 0.0
2017-Sep-11 20:58N 34°15' W 119°16'0 0.0
2017-Sep-11 20:29N 34°15' W 119°16'0 0.0
2017-Sep-11 19:58N 34°15' W 119°16'0 0.0
2017-Sep-11 19:23N 34°15' W 119°16'0 0.0
2017-Sep-11 19:00N 34°15' W 119°16'0 0.0
2017-Sep-11 18:27N 34°15' W 119°16'0 0.0
2017-Sep-11 17:57N 34°15' W 119°16'0 0.0
2017-Sep-11 17:30N 34°15' W 119°16'0 0.0
2017-Sep-11 16:52N 34°15' W 119°16'0 0.0
2017-Sep-11 16:27N 34°15' W 119°16'0 0.0
2017-Sep-11 16:00N 34°15' W 119°16'0 0.0
2017-Sep-11 15:26N 34°15' W 119°16'0 0.0
2017-Sep-11 14:52N 34°15' W 119°16'0 0.0
2017-Sep-11 14:28N 34°15' W 119°16'0 0.0
2017-Sep-11 14:00N 34°15' W 119°16'0 0.0
2017-Sep-11 13:29N 34°15' W 119°16'0 0.0
2017-Sep-11 12:56N 34°15' W 119°16'0 0.0
2017-Sep-11 12:30N 34°15' W 119°16'0 0.0
2017-Sep-11 11:55N 34°15' W 119°16'0 0.0
2017-Sep-11 11:29N 34°15' W 119°16'0 0.0
2017-Sep-11 11:00N 34°15' W 119°16'0 0.0
2017-Sep-11 10:31N 34°15' W 119°16'0 0.0
2017-Sep-11 10:00N 34°15' W 119°16'0 0.0
2017-Sep-11 09:28N 34°15' W 119°16'0 0.0
2017-Sep-11 08:56N 34°15' W 119°16'0 0.0
2017-Sep-11 08:26N 34°15' W 119°16'0 0.0
2017-Sep-11 08:00N 34°15' W 119°16'0 0.0
2017-Sep-11 07:20N 34°15' W 119°16'0 0.0
2017-Sep-11 06:59N 34°15' W 119°16'0 0.0
2017-Sep-11 06:20N 34°15' W 119°16'0 0.0
2017-Sep-11 06:00N 34°15' W 119°16'0 0.0
2017-Sep-11 05:28N 34°15' W 119°16'0 0.0
2017-Sep-11 05:00N 34°15' W 119°16'0 0.0
2017-Sep-11 04:25N 34°15' W 119°16'0 0.0
2017-Sep-11 04:01N 34°15' W 119°16'0 0.0
2017-Sep-11 03:29N 34°15' W 119°16'0 0.0
2017-Sep-11 02:59N 34°15' W 119°16'0 0.0
2017-Sep-11 02:28N 34°15' W 119°16'0 0.0
2017-Sep-11 02:00N 34°15' W 119°16'0 0.0
2017-Sep-11 01:30N 34°15' W 119°16'0 0.0
2017-Sep-11 00:59N 34°15' W 119°16'0 0.0
2017-Sep-11 00:29N 34°15' W 119°16'0 0.0
2017-Sep-11 00:00N 34°15' W 119°16'0 0.0
2017-Sep-10 23:30N 34°15' W 119°16'0 0.0
2017-Sep-10 23:00N 34°15' W 119°16'0 0.0
2017-Sep-10 22:30N 34°15' W 119°16'0 0.0
2017-Sep-10 22:00N 34°15' W 119°16'0 0.0
2017-Sep-10 21:30N 34°15' W 119°16'0 0.0
2017-Sep-10 21:00N 34°15' W 119°16'0 0.0
2017-Sep-10 20:30N 34°15' W 119°16'0 0.0
2017-Sep-10 20:01N 34°15' W 119°16'0 0.0
2017-Sep-10 19:30N 34°15' W 119°16'0 0.0
2017-Sep-10 19:01N 34°15' W 119°16'0 0.0
2017-Sep-10 18:30N 34°15' W 119°16'0 0.0
2017-Sep-10 17:59N 34°15' W 119°16'0 0.0
2017-Sep-10 17:30N 34°15' W 119°16'0 0.0
2017-Sep-10 17:01N 34°15' W 119°16'0 0.0
2017-Sep-10 16:29N 34°15' W 119°16'0 0.0
2017-Sep-10 16:00N 34°15' W 119°16'0 0.0
2017-Sep-10 15:31N 34°15' W 119°16'0 0.0
2017-Sep-10 15:00N 34°15' W 119°16'0 0.0
2017-Sep-10 14:00N 34°15' W 119°16'0 0.0
2017-Sep-10 13:30N 34°15' W 119°16'0 0.0
2017-Sep-10 13:00N 34°15' W 119°16'0 0.0
2017-Sep-10 12:30N 34°15' W 119°16'0 0.0
2017-Sep-10 12:00N 34°15' W 119°16'0 0.0
2017-Sep-10 11:30N 34°15' W 119°16'0 0.0
2017-Sep-10 11:01N 34°15' W 119°16'0 0.0
2017-Sep-10 10:30N 34°15' W 119°16'0 0.0
2017-Sep-10 09:59N 34°15' W 119°16'0 0.0
2017-Sep-10 09:30N 34°15' W 119°16'0 0.0
2017-Sep-10 09:00N 34°15' W 119°16'0 0.0
2017-Sep-10 08:30N 34°15' W 119°16'0 0.0
2017-Sep-10 08:01N 34°15' W 119°16'0 0.0
2017-Sep-10 07:30N 34°15' W 119°16'0 0.0
2017-Sep-10 06:58N 34°15' W 119°16'0 0.0
2017-Sep-10 06:30N 34°15' W 119°16'0 0.0
2017-Sep-10 06:00N 34°15' W 119°16'0 0.0
2017-Sep-10 05:29N 34°15' W 119°16'0 0.0
2017-Sep-10 04:59N 34°15' W 119°16'0 0.0
2017-Sep-10 04:29N 34°15' W 119°16'0 0.0
2017-Sep-10 03:59N 34°15' W 119°16'0 0.0
2017-Sep-10 03:28N 34°15' W 119°16'0 0.0
2017-Sep-10 03:00N 34°15' W 119°16'0 0.0
2017-Sep-10 02:30N 34°15' W 119°16'0 0.0
2017-Sep-10 02:00N 34°15' W 119°16'0 0.0
2017-Sep-10 01:30N 34°15' W 119°16'0 0.0
2017-Sep-10 01:00N 34°15' W 119°16'0 0.0
2017-Sep-10 00:30N 34°15' W 119°16'0 0.0
2017-Sep-10 00:00N 34°15' W 119°16'0 0.0
2017-Sep-09 23:30N 34°15' W 119°16'0 0.0
2017-Sep-09 23:00N 34°15' W 119°16'0 0.0
2017-Sep-09 22:30N 34°15' W 119°16'0 0.0
2017-Sep-09 22:00N 34°15' W 119°16'0 0.0
2017-Sep-09 21:29N 34°15' W 119°16'0 0.0
2017-Sep-09 21:00N 34°15' W 119°16'0 0.0
2017-Sep-09 20:30N 34°15' W 119°16'0 0.0
2017-Sep-09 19:57N 34°15' W 119°16'0 0.0
2017-Sep-09 19:30N 34°15' W 119°16'0 0.0
2017-Sep-09 18:58N 34°15' W 119°16'0 0.0
2017-Sep-09 18:29N 34°15' W 119°16'0 0.0
2017-Sep-09 17:59N 34°15' W 119°16'0 0.0
2017-Sep-09 17:30N 34°15' W 119°16'0 0.0
2017-Sep-09 16:58N 34°15' W 119°16'0 0.0
2017-Sep-09 16:29N 34°15' W 119°16'0 0.0
2017-Sep-09 15:57N 34°15' W 119°16'0 0.0
2017-Sep-09 15:30N 34°15' W 119°16'0 0.0
2017-Sep-09 14:58N 34°15' W 119°16'0 0.0
2017-Sep-09 14:25N 34°15' W 119°16'0 0.0
2017-Sep-09 14:01N 34°15' W 119°16'0 0.0
2017-Sep-09 13:30N 34°15' W 119°16'0 0.0
2017-Sep-09 12:59N 34°15' W 119°16'0 0.0
2017-Sep-09 12:30N 34°15' W 119°16'0 0.0
2017-Sep-09 12:00N 34°15' W 119°16'0 0.0
2017-Sep-09 11:30N 34°15' W 119°16'0 0.0
2017-Sep-09 11:00N 34°15' W 119°16'0 0.0
2017-Sep-09 10:24N 34°15' W 119°16'0 0.0
2017-Sep-09 09:55N 34°15' W 119°16'0 0.0
2017-Sep-09 09:27N 34°15' W 119°16'0 0.0
2017-Sep-09 09:00N 34°15' W 119°16'0 0.0
2017-Sep-09 08:23N 34°15' W 119°16'0 0.0
2017-Sep-09 07:55N 34°15' W 119°16'0 0.0
2017-Sep-09 07:27N 34°15' W 119°16'0 0.0
2017-Sep-09 07:00N 34°15' W 119°16'0 0.0
2017-Sep-09 06:29N 34°15' W 119°16'0 0.0
2017-Sep-09 05:59N 34°15' W 119°16'0 0.0
2017-Sep-09 05:28N 34°15' W 119°16'0 0.0
2017-Sep-09 04:58N 34°15' W 119°16'0 0.0
2017-Sep-09 04:30N 34°15' W 119°16'0 0.0
2017-Sep-09 03:58N 34°15' W 119°16'0 0.0
2017-Sep-09 03:30N 34°15' W 119°16'0 0.0
2017-Sep-09 03:00N 34°15' W 119°16'0 0.0
2017-Sep-09 02:24N 34°15' W 119°16'0 0.0
2017-Sep-09 01:59N 34°15' W 119°16'0 0.0
2017-Sep-09 01:30N 34°15' W 119°16'0 0.0
2017-Sep-09 01:00N 34°15' W 119°16'0 0.0
2017-Sep-09 00:30N 34°15' W 119°16'0 0.0
2017-Sep-09 00:00N 34°15' W 119°16'0 0.0
2017-Sep-08 23:30N 34°15' W 119°16'0 0.0
2017-Sep-08 23:00N 34°15' W 119°16'0 0.0
2017-Sep-08 22:29N 34°15' W 119°16'0 0.0
2017-Sep-08 21:55N 34°15' W 119°16'0 0.0
2017-Sep-08 21:30N 34°15' W 119°16'0 0.0
2017-Sep-08 20:58N 34°15' W 119°16'0 0.0
2017-Sep-08 20:29N 34°15' W 119°16'0 0.0
2017-Sep-08 19:59N 34°15' W 119°16'0 0.0
2017-Sep-08 19:30N 34°15' W 119°16'0 0.0
2017-Sep-08 19:00N 34°15' W 119°16'0 0.0
2017-Sep-08 18:30N 34°15' W 119°16'0 0.0
2017-Sep-08 18:00N 34°15' W 119°16'0 0.0
2017-Sep-08 17:30N 34°15' W 119°16'0 0.0
2017-Sep-08 17:00N 34°15' W 119°16'0 0.0
2017-Sep-08 16:30N 34°15' W 119°16'0 0.0
2017-Sep-08 16:00N 34°15' W 119°16'0 0.0
2017-Sep-08 15:30N 34°15' W 119°16'0 0.0
2017-Sep-08 15:00N 34°15' W 119°16'0 0.0
2017-Sep-08 14:30N 34°15' W 119°16'0 0.0
2017-Sep-08 14:00N 34°15' W 119°16'0 0.0
2017-Sep-08 13:30N 34°15' W 119°16'0 0.0
2017-Sep-08 13:00N 34°15' W 119°16'0 0.0
2017-Sep-08 12:30N 34°15' W 119°16'0 0.0
2017-Sep-08 11:57N 34°15' W 119°16'0 0.0
2017-Sep-08 11:28N 34°15' W 119°16'0 0.0
2017-Sep-08 10:55N 34°15' W 119°16'0 0.0
2017-Sep-08 10:30N 34°15' W 119°16'0 0.0
2017-Sep-08 10:00N 34°15' W 119°16'0 0.0
2017-Sep-08 09:27N 34°15' W 119°16'0 0.0
2017-Sep-08 08:56N 34°15' W 119°16'0 0.0
2017-Sep-08 08:30N 34°15' W 119°16'0 0.0
2017-Sep-08 08:00N 34°15' W 119°16'0 0.0
2017-Sep-08 07:28N 34°15' W 119°16'0 0.0
2017-Sep-08 07:00N 34°15' W 119°16'0 0.0
2017-Sep-08 06:30N 34°15' W 119°16'0 0.0
2017-Sep-08 05:59N 34°15' W 119°16'0 0.0
2017-Sep-08 05:29N 34°15' W 119°16'0 0.0
2017-Sep-08 04:59N 34°15' W 119°16'0 0.0
2017-Sep-08 04:29N 34°15' W 119°16'0 0.0
2017-Sep-08 03:57N 34°15' W 119°16'0 0.0
2017-Sep-08 03:30N 34°15' W 119°16'0 0.0
2017-Sep-08 03:00N 34°15' W 119°16'0 0.0
2017-Sep-08 02:29N 34°15' W 119°16'0 0.0
2017-Sep-08 01:57N 34°15' W 119°16'0 0.0
2017-Sep-08 01:30N 34°15' W 119°16'0 0.0
2017-Sep-08 01:01N 34°15' W 119°16'0 0.0
2017-Sep-08 00:29N 34°15' W 119°16'0 0.0
2017-Sep-07 23:58N 34°15' W 119°16'0 0.0
2017-Sep-07 23:30N 34°15' W 119°16'0 0.0
2017-Sep-07 22:59N 34°15' W 119°16'0 0.0
2017-Sep-07 22:29N 34°15' W 119°16'0 0.0
2017-Sep-07 22:00N 34°15' W 119°16'0 0.0
2017-Sep-07 21:30N 34°15' W 119°16'0 0.0
2017-Sep-07 20:58N 34°15' W 119°16'0 0.0
2017-Sep-07 20:30N 34°15' W 119°16'0 0.0
2017-Sep-07 19:59N 34°15' W 119°16'0 0.0
2017-Sep-07 19:29N 34°15' W 119°16'0 0.0
2017-Sep-07 18:58N 34°15' W 119°16'0 0.0
2017-Sep-07 18:29N 34°15' W 119°16'0 0.0
2017-Sep-07 17:56N 34°15' W 119°16'0 0.0
2017-Sep-07 17:29N 34°15' W 119°16'0 0.0
2017-Sep-07 17:00N 34°15' W 119°16'0 0.0
2017-Sep-07 16:27N 34°15' W 119°16'0 0.0
2017-Sep-07 16:01N 34°15' W 119°16'0 0.0
2017-Sep-07 15:28N 34°15' W 119°16'0 0.0
2017-Sep-07 14:55N 34°15' W 119°16'0 0.0
2017-Sep-07 14:30N 34°15' W 119°16'0 0.0
2017-Sep-07 13:58N 34°15' W 119°16'0 0.0
2017-Sep-07 13:22N 34°15' W 119°16'0 0.0
2017-Sep-07 13:00N 34°15' W 119°16'0 0.0
2017-Sep-07 12:30N 34°15' W 119°16'0 0.0
2017-Sep-07 11:59N 34°15' W 119°16'0 0.0
2017-Sep-07 11:29N 34°15' W 119°16'0 0.0
2017-Sep-07 11:00N 34°15' W 119°16'0 0.0
2017-Sep-07 10:28N 34°15' W 119°16'0 0.0
2017-Sep-07 10:00N 34°15' W 119°16'0 0.0
2017-Sep-07 09:31N 34°15' W 119°16'0 0.0
2017-Sep-07 09:00N 34°15' W 119°16'0 0.0
2017-Sep-07 08:30N 34°15' W 119°16'0 0.0
2017-Sep-07 07:59N 34°15' W 119°16'0 0.0
2017-Sep-07 07:29N 34°15' W 119°16'0 0.0
2017-Sep-07 07:00N 34°15' W 119°16'0 0.0
2017-Sep-07 06:30N 34°15' W 119°16'0 0.0
2017-Sep-07 05:55N 34°15' W 119°16'0 0.0
2017-Sep-07 05:27N 34°15' W 119°16'0 0.0
2017-Sep-07 04:58N 34°15' W 119°16'0 0.0
2017-Sep-07 04:30N 34°15' W 119°16'0 0.0
2017-Sep-07 03:58N 34°15' W 119°16'0 0.0
2017-Sep-07 03:29N 34°15' W 119°16'0 0.0
2017-Sep-07 02:58N 34°15' W 119°16'0 0.0
2017-Sep-07 02:29N 34°15' W 119°16'0 0.0
2017-Sep-07 01:57N 34°15' W 119°16'0 0.0
2017-Sep-07 01:29N 34°15' W 119°16'0 0.0
2017-Sep-07 00:59N 34°15' W 119°16'0 0.0
2017-Sep-07 00:28N 34°15' W 119°16'0 0.0
2017-Sep-06 23:50N 34°15' W 119°16'  
Track history (hours):
 
Tides and Currents Weather Stations Pressure Air Temp Water Temp Dewpoint Dewpoint Depression Visibility Wind Speed Wind Dir Waves Ship Positions

Tenacious

Owner: McCampbell, Peter, Littleton, CO. More information available from US FCC via Universal Licensing System and Coast Guard Vessel Documentation Center.

Last reported at 2017-Sep-16 23:37 UTC. Time now 2017-Sep-23 16:27 UTC.
Position N 32°38' W 117°07'.

Length 17 m; draft 2 m.

Type: Pleasure craft. MMSI: 367763920.

Date/timePositionNaut miles runAvg speedWind from/ knotsBaromVisibWave heightAir tempDewpointWater temp
2017-Sep-16 23:37N 32°38' W 117°07'6 8.3
2017-Sep-16 22:51N 32°43' W 117°12'3 7.9
2017-Sep-16 22:30N 32°40' W 117°14'3 6.7
2017-Sep-16 22:00N 32°40' W 117°18'4 8.9
2017-Sep-16 21:30N 32°43' W 117°22'4 8.7
2017-Sep-16 21:00N 32°45' W 117°26'4 8.4
2017-Sep-16 20:31N 32°48' W 117°29'4 8.3
2017-Sep-16 20:00N 32°51' W 117°33'4 8.4
2017-Sep-16 19:31N 32°54' W 117°37'4 8.5
2017-Sep-16 19:00N 32°57' W 117°41'4 8.7
2017-Sep-16 18:31N 32°59' W 117°45'4 8.5
2017-Sep-16 18:00N 33°01' W 117°49'4 8.1
2017-Sep-16 17:30N 33°03' W 117°53'4 8.0
2017-Sep-16 17:00N 33°06' W 117°57'4 7.8
2017-Sep-16 16:30N 33°09' W 118°00'4 7.8
2017-Sep-16 16:00N 33°12' W 118°04'4 8.1
2017-Sep-16 15:30N 33°14' W 118°07'11 7.9
2017-Sep-16 14:04N 33°21' W 118°18'0 7.7
2017-Sep-16 14:00N 33°21' W 118°19'1 0.1
2017-Sep-15 23:23N 33°21' W 118°20'1 1.3
2017-Sep-15 22:56N 33°21' W 118°19'18 8.0
2017-Sep-15 20:39N 33°34' W 118°34'2 8.2
2017-Sep-15 20:23N 33°35' W 118°36'3 8.3
2017-Sep-15 20:00N 33°38' W 118°39'4 8.1
2017-Sep-15 19:30N 33°41' W 118°42'4 8.2
2017-Sep-15 19:00N 33°43' W 118°46'4 8.1
2017-Sep-15 18:30N 33°46' W 118°50'4 8.2
2017-Sep-15 18:00N 33°49' W 118°53'4 8.3
2017-Sep-15 17:29N 33°52' W 118°57'4 8.6
2017-Sep-15 17:00N 33°55' W 119°00'4 7.6
2017-Sep-15 16:31N 33°57' W 119°04'4 8.3
2017-Sep-15 16:00N 34°00' W 119°08'4 8.2
2017-Sep-15 15:30N 34°03' W 119°11'4 7.9
2017-Sep-15 15:00N 34°07' W 119°13'4 7.4
2017-Sep-15 14:28N 34°10' W 119°15'4 8.0
2017-Sep-15 14:00N 34°14' W 119°17'1 2.5
2017-Sep-15 13:30N 34°15' W 119°16'0 0.0
2017-Sep-15 12:56N 34°15' W 119°16'0 0.0
2017-Sep-15 12:30N 34°15' W 119°16'0 0.0
2017-Sep-15 12:00N 34°15' W 119°16'0 0.0
2017-Sep-15 11:30N 34°15' W 119°16'0 0.0
2017-Sep-15 11:00N 34°15' W 119°16'0 0.0
2017-Sep-15 10:30N 34°15' W 119°16'0 0.0
2017-Sep-15 09:57N 34°15' W 119°16'0 0.0
2017-Sep-15 09:29N 34°15' W 119°16'0 0.0
2017-Sep-15 08:59N 34°15' W 119°16'0 0.0
2017-Sep-15 08:28N 34°15' W 119°16'0 0.0
2017-Sep-15 07:57N 34°15' W 119°16'0 0.0
2017-Sep-15 07:25N 34°15' W 119°16'0 0.0
2017-Sep-15 06:59N 34°15' W 119°16'0 0.0
2017-Sep-15 06:25N 34°15' W 119°16'0 0.0
2017-Sep-15 05:58N 34°15' W 119°16'0 0.0
2017-Sep-15 05:30N 34°15' W 119°16'0 0.0
2017-Sep-15 04:56N 34°15' W 119°16'0 0.0
2017-Sep-15 04:28N 34°15' W 119°16'0 0.0
2017-Sep-15 03:54N 34°15' W 119°16'0 0.0
2017-Sep-15 03:26N 34°15' W 119°16'0 0.0
2017-Sep-15 02:58N 34°15' W 119°16'0 0.0
2017-Sep-15 02:29N 34°15' W 119°16'0 0.0
2017-Sep-15 02:00N 34°15' W 119°16'0 0.0
2017-Sep-15 01:28N 34°15' W 119°16'0 0.0
2017-Sep-15 01:01N 34°15' W 119°16'0 0.0
2017-Sep-15 00:29N 34°15' W 119°16'0 0.0
2017-Sep-14 23:42N 34°15' W 119°16'0 0.0
2017-Sep-14 23:29N 34°15' W 119°16'0 0.0
2017-Sep-14 22:56N 34°15' W 119°16'0 0.0
2017-Sep-14 22:18N 34°15' W 119°16'0 0.0
2017-Sep-14 22:00N 34°15' W 119°16'0 0.0
2017-Sep-14 21:18N 34°15' W 119°16'0 0.0
2017-Sep-14 20:51N 34°15' W 119°16'0 0.0
2017-Sep-14 20:27N 34°15' W 119°16'0 0.0
2017-Sep-14 20:00N 34°15' W 119°16'0 0.0
2017-Sep-14 19:24N 34°15' W 119°16'0 0.0
2017-Sep-14 18:57N 34°15' W 119°16'0 0.0
2017-Sep-14 18:30N 34°15' W 119°16'0 0.0
2017-Sep-14 18:00N 34°15' W 119°16'0 0.0
2017-Sep-14 17:24N 34°15' W 119°16'0 0.0
2017-Sep-14 16:50N 34°15' W 119°16'0 0.0
2017-Sep-14 16:28N 34°15' W 119°16'0 0.0
2017-Sep-14 16:00N 34°15' W 119°16'0 0.0
2017-Sep-14 15:25N 34°15' W 119°16'0 0.0
2017-Sep-14 15:01N 34°15' W 119°16'0 0.0
2017-Sep-14 14:29N 34°15' W 119°16'0 0.0
2017-Sep-14 13:26N 34°15' W 119°16'0 0.0
2017-Sep-14 12:53N 34°15' W 119°16'0 0.0
2017-Sep-14 12:29N 34°15' W 119°16'0 0.0
2017-Sep-14 11:54N 34°15' W 119°16'0 0.0
2017-Sep-14 11:30N 34°15' W 119°16'0 0.0
2017-Sep-14 10:57N 34°15' W 119°16'0 0.0
2017-Sep-14 10:30N 34°15' W 119°16'0 0.0
2017-Sep-14 10:00N 34°15' W 119°16'0 0.0
2017-Sep-14 09:30N 34°15' W 119°16'0 0.0
2017-Sep-14 08:55N 34°15' W 119°16'0 0.0
2017-Sep-14 08:30N 34°15' W 119°16'0 0.0
2017-Sep-14 08:00N 34°15' W 119°16'0 0.0
2017-Sep-14 07:27N 34°15' W 119°16'0 0.0
2017-Sep-14 07:00N 34°15' W 119°16'0 0.0
2017-Sep-14 06:27N 34°15' W 119°16'0 0.0
2017-Sep-14 06:00N 34°15' W 119°16'0 0.0
2017-Sep-14 05:30N 34°15' W 119°16'0 0.0
2017-Sep-14 04:51N 34°15' W 119°16'0 0.0
2017-Sep-14 04:28N 34°15' W 119°16'0 0.0
2017-Sep-14 03:59N 34°15' W 119°16'0 0.0
2017-Sep-14 03:04N 34°15' W 119°16'0 0.0
2017-Sep-14 03:00N 34°15' W 119°16'0 0.0
2017-Sep-14 02:30N 34°15' W 119°16'0 0.0
2017-Sep-14 01:57N 34°15' W 119°16'0 0.0
2017-Sep-14 01:25N 34°15' W 119°16'0 0.0
2017-Sep-14 01:00N 34°15' W 119°16'0 0.0
2017-Sep-14 00:30N 34°15' W 119°16'0 0.0
2017-Sep-14 00:00N 34°15' W 119°16'0 0.0
2017-Sep-13 23:25N 34°15' W 119°16'0 0.0
2017-Sep-13 22:49N 34°15' W 119°16'0 0.0
2017-Sep-13 22:29N 34°15' W 119°16'0 0.0
2017-Sep-13 21:58N 34°15' W 119°16'0 0.0
2017-Sep-13 21:28N 34°15' W 119°16'0 0.0
2017-Sep-13 20:59N 34°15' W 119°16'0 0.0
2017-Sep-13 20:27N 34°15' W 119°16'0 0.0
2017-Sep-13 19:58N 34°15' W 119°16'0 0.0
2017-Sep-13 19:30N 34°15' W 119°16'0 0.0
2017-Sep-13 18:57N 34°15' W 119°16'0 0.0
2017-Sep-13 18:31N 34°15' W 119°16'0 0.0
2017-Sep-13 17:59N 34°15' W 119°16'0 0.0
2017-Sep-13 17:30N 34°15' W 119°16'0 0.0
2017-Sep-13 16:59N 34°15' W 119°16'0 0.0
2017-Sep-13 16:30N 34°15' W 119°16'0 0.0
2017-Sep-13 15:59N 34°15' W 119°16'0 0.0
2017-Sep-13 15:24N 34°15' W 119°16'0 0.0
2017-Sep-13 14:58N 34°15' W 119°16'0 0.0
2017-Sep-13 14:30N 34°15' W 119°16'0 0.0
2017-Sep-13 14:00N 34°15' W 119°16'0 0.0
2017-Sep-13 13:30N 34°15' W 119°16'0 0.0
2017-Sep-13 13:00N 34°15' W 119°16'0 0.0
2017-Sep-13 12:30N 34°15' W 119°16'0 0.0
2017-Sep-13 12:00N 34°15' W 119°16'0 0.0
2017-Sep-13 11:28N 34°15' W 119°16'0 0.0
2017-Sep-13 10:59N 34°15' W 119°16'0 0.0
2017-Sep-13 10:30N 34°15' W 119°16'0 0.0
2017-Sep-13 09:58N 34°15' W 119°16'0 0.0
2017-Sep-13 09:26N 34°15' W 119°16'0 0.0
2017-Sep-13 08:58N 34°15' W 119°16'0 0.0
2017-Sep-13 08:30N 34°15' W 119°16'0 0.0
2017-Sep-13 08:00N 34°15' W 119°16'0 0.0
2017-Sep-13 07:24N 34°15' W 119°16'0 0.0
2017-Sep-13 06:58N 34°15' W 119°16'0 0.0
2017-Sep-13 06:30N 34°15' W 119°16'0 0.0
2017-Sep-13 05:58N 34°15' W 119°16'0 0.0
2017-Sep-13 05:29N 34°15' W 119°16'0 0.0
2017-Sep-13 05:00N 34°15' W 119°16'0 0.0
2017-Sep-13 04:29N 34°15' W 119°16'0 0.0
2017-Sep-13 04:00N 34°15' W 119°16'0 0.0
2017-Sep-13 03:23N 34°15' W 119°16'0 0.0
2017-Sep-13 02:58N 34°15' W 119°16'0 0.0
2017-Sep-13 02:28N 34°15' W 119°16'0 0.0
2017-Sep-13 01:59N 34°15' W 119°16'0 0.0
2017-Sep-13 01:30N 34°15' W 119°16'0 0.0
2017-Sep-13 00:58N 34°15' W 119°16'0 0.0
2017-Sep-13 00:30N 34°15' W 119°16'0 0.0
2017-Sep-13 00:01N 34°15' W 119°16'0 0.0
2017-Sep-12 23:30N 34°15' W 119°16'0 0.0
2017-Sep-12 22:54N 34°15' W 119°16'0 0.0
2017-Sep-12 22:26N 34°15' W 119°16'0 0.0
2017-Sep-12 21:59N 34°15' W 119°16'0 0.0
2017-Sep-12 21:17N 34°15' W 119°16'0 0.0
2017-Sep-12 20:58N 34°15' W 119°16'0 0.0
2017-Sep-12 20:26N 34°15' W 119°16'0 0.0
2017-Sep-12 20:00N 34°15' W 119°16'0 0.0
2017-Sep-12 19:20N 34°15' W 119°16'0 0.0
2017-Sep-12 18:58N 34°15' W 119°16'0 0.0
2017-Sep-12 18:30N 34°15' W 119°16'0 0.0
2017-Sep-12 18:00N 34°15' W 119°16'0 0.0
2017-Sep-12 17:28N 34°15' W 119°16'0 0.0
2017-Sep-12 17:00N 34°15' W 119°16'0 0.0
2017-Sep-12 16:30N 34°15' W 119°16'0 0.0
2017-Sep-12 15:58N 34°15' W 119°16'0 0.0
2017-Sep-12 15:29N 34°15' W 119°16'0 0.0
2017-Sep-12 15:00N 34°15' W 119°16'0 0.0
2017-Sep-12 14:30N 34°15' W 119°16'0 0.0
2017-Sep-12 13:59N 34°15' W 119°16'0 0.0
2017-Sep-12 13:30N 34°15' W 119°16'0 0.0
2017-Sep-12 13:00N 34°15' W 119°16'0 0.0
2017-Sep-12 12:29N 34°15' W 119°16'0 0.0
2017-Sep-12 12:00N 34°15' W 119°16'0 0.0
2017-Sep-12 11:27N 34°15' W 119°16'0 0.0
2017-Sep-12 10:54N 34°15' W 119°16'0 0.0
2017-Sep-12 10:25N 34°15' W 119°16'0 0.0
2017-Sep-12 09:59N 34°15' W 119°16'0 0.0
2017-Sep-12 09:29N 34°15' W 119°16'0 0.0
2017-Sep-12 08:58N 34°15' W 119°16'0 0.0
2017-Sep-12 08:30N 34°15' W 119°16'0 0.0
2017-Sep-12 07:55N 34°15' W 119°16'0 0.0
2017-Sep-12 07:30N 34°15' W 119°16'0 0.0
2017-Sep-12 07:00N 34°15' W 119°16'0 0.0
2017-Sep-12 06:25N 34°15' W 119°16'0 0.0
2017-Sep-12 05:59N 34°15' W 119°16'0 0.0
2017-Sep-12 05:21N 34°15' W 119°16'0 0.0
2017-Sep-12 04:50N 34°15' W 119°16'0 0.0
2017-Sep-12 04:30N 34°15' W 119°16'0 0.0
2017-Sep-12 03:59N 34°15' W 119°16'0 0.0
2017-Sep-12 03:30N 34°15' W 119°16'0 0.0
2017-Sep-12 02:56N 34°15' W 119°16'0 0.0
2017-Sep-12 02:27N 34°15' W 119°16'0 0.0
2017-Sep-12 02:00N 34°15' W 119°16'0 0.0
2017-Sep-12 01:27N 34°15' W 119°16'0 0.0
2017-Sep-12 00:57N 34°15' W 119°16'0 0.0
2017-Sep-12 00:31N 34°15' W 119°16'0 0.0
2017-Sep-11 23:59N 34°15' W 119°16'0 0.0
2017-Sep-11 23:25N 34°15' W 119°16'0 0.0
2017-Sep-11 22:57N 34°15' W 119°16'0 0.0
2017-Sep-11 22:26N 34°15' W 119°16'0 0.0
2017-Sep-11 21:59N 34°15' W 119°16'0 0.0
2017-Sep-11 21:29N 34°15' W 119°16'0 0.0
2017-Sep-11 20:58N 34°15' W 119°16'0 0.0
2017-Sep-11 20:29N 34°15' W 119°16'0 0.0
2017-Sep-11 19:58N 34°15' W 119°16'0 0.0
2017-Sep-11 19:23N 34°15' W 119°16'0 0.0
2017-Sep-11 19:00N 34°15' W 119°16'0 0.0
2017-Sep-11 18:27N 34°15' W 119°16'0 0.0
2017-Sep-11 17:57N 34°15' W 119°16'0 0.0
2017-Sep-11 17:30N 34°15' W 119°16'0 0.0
2017-Sep-11 16:52N 34°15' W 119°16'0 0.0
2017-Sep-11 16:27N 34°15' W 119°16'0 0.0
2017-Sep-11 16:00N 34°15' W 119°16'0 0.0
2017-Sep-11 15:26N 34°15' W 119°16'0 0.0
2017-Sep-11 14:52N 34°15' W 119°16'0 0.0
2017-Sep-11 14:28N 34°15' W 119°16'0 0.0
2017-Sep-11 14:00N 34°15' W 119°16'0 0.0
2017-Sep-11 13:29N 34°15' W 119°16'0 0.0
2017-Sep-11 12:56N 34°15' W 119°16'0 0.0
2017-Sep-11 12:30N 34°15' W 119°16'0 0.0
2017-Sep-11 11:55N 34°15' W 119°16'0 0.0
2017-Sep-11 11:29N 34°15' W 119°16'0 0.0
2017-Sep-11 11:00N 34°15' W 119°16'0 0.0
2017-Sep-11 10:31N 34°15' W 119°16'0 0.0
2017-Sep-11 10:00N 34°15' W 119°16'0 0.0
2017-Sep-11 09:28N 34°15' W 119°16'0 0.0
2017-Sep-11 08:56N 34°15' W 119°16'0 0.0
2017-Sep-11 08:26N 34°15' W 119°16'0 0.0
2017-Sep-11 08:00N 34°15' W 119°16'0 0.0
2017-Sep-11 07:20N 34°15' W 119°16'0 0.0
2017-Sep-11 06:59N 34°15' W 119°16'0 0.0
2017-Sep-11 06:20N 34°15' W 119°16'0 0.0
2017-Sep-11 06:00N 34°15' W 119°16'0 0.0
2017-Sep-11 05:28N 34°15' W 119°16'0 0.0
2017-Sep-11 05:00N 34°15' W 119°16'0 0.0
2017-Sep-11 04:25N 34°15' W 119°16'0 0.0
2017-Sep-11 04:01N 34°15' W 119°16'0 0.0
2017-Sep-11 03:29N 34°15' W 119°16'0 0.0
2017-Sep-11 02:59N 34°15' W 119°16'0 0.0
2017-Sep-11 02:28N 34°15' W 119°16'0 0.0
2017-Sep-11 02:00N 34°15' W 119°16'0 0.0
2017-Sep-11 01:30N 34°15' W 119°16'0 0.0
2017-Sep-11 00:59N 34°15' W 119°16'0 0.0
2017-Sep-11 00:29N 34°15' W 119°16'0 0.0
2017-Sep-11 00:00N 34°15' W 119°16'0 0.0
2017-Sep-10 23:30N 34°15' W 119°16'0 0.0
2017-Sep-10 23:00N 34°15' W 119°16'0 0.0
2017-Sep-10 22:30N 34°15' W 119°16'0 0.0
2017-Sep-10 22:00N 34°15' W 119°16'0 0.0
2017-Sep-10 21:30N 34°15' W 119°16'0 0.0
2017-Sep-10 21:00N 34°15' W 119°16'0 0.0
2017-Sep-10 20:30N 34°15' W 119°16'0 0.0
2017-Sep-10 20:01N 34°15' W 119°16'0 0.0
2017-Sep-10 19:30N 34°15' W 119°16'0 0.0
2017-Sep-10 19:01N 34°15' W 119°16'0 0.0
2017-Sep-10 18:30N 34°15' W 119°16'0 0.0
2017-Sep-10 17:59N 34°15' W 119°16'0 0.0
2017-Sep-10 17:30N 34°15' W 119°16'0 0.0
2017-Sep-10 17:01N 34°15' W 119°16'0 0.0
2017-Sep-10 16:29N 34°15' W 119°16'0 0.0
2017-Sep-10 16:00N 34°15' W 119°16'0 0.0
2017-Sep-10 15:31N 34°15' W 119°16'0 0.0
2017-Sep-10 15:00N 34°15' W 119°16'0 0.0
2017-Sep-10 14:00N 34°15' W 119°16'0 0.0
2017-Sep-10 13:30N 34°15' W 119°16'0 0.0
2017-Sep-10 13:00N 34°15' W 119°16'0 0.0
2017-Sep-10 12:30N 34°15' W 119°16'0 0.0
2017-Sep-10 12:00N 34°15' W 119°16'0 0.0
2017-Sep-10 11:30N 34°15' W 119°16'0 0.0
2017-Sep-10 11:01N 34°15' W 119°16'0 0.0
2017-Sep-10 10:30N 34°15' W 119°16'0 0.0
2017-Sep-10 09:59N 34°15' W 119°16'0 0.0
2017-Sep-10 09:30N 34°15' W 119°16'0 0.0
2017-Sep-10 09:00N 34°15' W 119°16'0 0.0
2017-Sep-10 08:30N 34°15' W 119°16'0 0.0
2017-Sep-10 08:01N 34°15' W 119°16'0 0.0
2017-Sep-10 07:30N 34°15' W 119°16'0 0.0
2017-Sep-10 06:58N 34°15' W 119°16'0 0.0
2017-Sep-10 06:30N 34°15' W 119°16'0 0.0
2017-Sep-10 06:00N 34°15' W 119°16'0 0.0
2017-Sep-10 05:29N 34°15' W 119°16'0 0.0
2017-Sep-10 04:59N 34°15' W 119°16'0 0.0
2017-Sep-10 04:29N 34°15' W 119°16'0 0.0
2017-Sep-10 03:59N 34°15' W 119°16'0 0.0
2017-Sep-10 03:28N 34°15' W 119°16'0 0.0
2017-Sep-10 03:00N 34°15' W 119°16'0 0.0
2017-Sep-10 02:30N 34°15' W 119°16'0 0.0
2017-Sep-10 02:00N 34°15' W 119°16'0 0.0
2017-Sep-10 01:30N 34°15' W 119°16'0 0.0
2017-Sep-10 01:00N 34°15' W 119°16'0 0.0
2017-Sep-10 00:30N 34°15' W 119°16'0 0.0
2017-Sep-10 00:00N 34°15' W 119°16'0 0.0
2017-Sep-09 23:30N 34°15' W 119°16'0 0.0
2017-Sep-09 23:00N 34°15' W 119°16'0 0.0
2017-Sep-09 22:30N 34°15' W 119°16'0 0.0
2017-Sep-09 22:00N 34°15' W 119°16'0 0.0
2017-Sep-09 21:29N 34°15' W 119°16'0 0.0
2017-Sep-09 21:00N 34°15' W 119°16'0 0.0
2017-Sep-09 20:30N 34°15' W 119°16'0 0.0
2017-Sep-09 19:57N 34°15' W 119°16'0 0.0
2017-Sep-09 19:30N 34°15' W 119°16'0 0.0
2017-Sep-09 18:58N 34°15' W 119°16'0 0.0
2017-Sep-09 18:29N 34°15' W 119°16'0 0.0
2017-Sep-09 17:59N 34°15' W 119°16'0 0.0
2017-Sep-09 17:30N 34°15' W 119°16'0 0.0
2017-Sep-09 16:58N 34°15' W 119°16'0 0.0
2017-Sep-09 16:29N 34°15' W 119°16'0 0.0
2017-Sep-09 15:57N 34°15' W 119°16'0 0.0
2017-Sep-09 15:30N 34°15' W 119°16'0 0.0
2017-Sep-09 14:58N 34°15' W 119°16'0 0.0
2017-Sep-09 14:25N 34°15' W 119°16'0 0.0
2017-Sep-09 14:01N 34°15' W 119°16'0 0.0
2017-Sep-09 13:30N 34°15' W 119°16'0 0.0
2017-Sep-09 12:59N 34°15' W 119°16'0 0.0
2017-Sep-09 12:30N 34°15' W 119°16'0 0.0
2017-Sep-09 12:00N 34°15' W 119°16'0 0.0
2017-Sep-09 11:30N 34°15' W 119°16'0 0.0
2017-Sep-09 11:00N 34°15' W 119°16'0 0.0
2017-Sep-09 10:24N 34°15' W 119°16'0 0.0
2017-Sep-09 09:55N 34°15' W 119°16'0 0.0
2017-Sep-09 09:27N 34°15' W 119°16'0 0.0
2017-Sep-09 09:00N 34°15' W 119°16'0 0.0
2017-Sep-09 08:23N 34°15' W 119°16'0 0.0
2017-Sep-09 07:55N 34°15' W 119°16'0 0.0
2017-Sep-09 07:27N 34°15' W 119°16'0 0.0
2017-Sep-09 07:00N 34°15' W 119°16'0 0.0
2017-Sep-09 06:29N 34°15' W 119°16'0 0.0
2017-Sep-09 05:59N 34°15' W 119°16'0 0.0
2017-Sep-09 05:28N 34°15' W 119°16'0 0.0
2017-Sep-09 04:58N 34°15' W 119°16'0 0.0
2017-Sep-09 04:30N 34°15' W 119°16'0 0.0
2017-Sep-09 03:58N 34°15' W 119°16'0 0.0
2017-Sep-09 03:30N 34°15' W 119°16'0 0.0
2017-Sep-09 03:00N 34°15' W 119°16'0 0.0
2017-Sep-09 02:24N 34°15' W 119°16'0 0.0
2017-Sep-09 01:59N 34°15' W 119°16'0 0.0
2017-Sep-09 01:30N 34°15' W 119°16'0 0.0
2017-Sep-09 01:00N 34°15' W 119°16'0 0.0
2017-Sep-09 00:30N 34°15' W 119°16'0 0.0
2017-Sep-09 00:00N 34°15' W 119°16'0 0.0
2017-Sep-08 23:30N 34°15' W 119°16'0 0.0
2017-Sep-08 23:00N 34°15' W 119°16'0 0.0
2017-Sep-08 22:29N 34°15' W 119°16'0 0.0
2017-Sep-08 21:55N 34°15' W 119°16'0 0.0
2017-Sep-08 21:30N 34°15' W 119°16'0 0.0
2017-Sep-08 20:58N 34°15' W 119°16'0 0.0
2017-Sep-08 20:29N 34°15' W 119°16'0 0.0
2017-Sep-08 19:59N 34°15' W 119°16'0 0.0
2017-Sep-08 19:30N 34°15' W 119°16'0 0.0
2017-Sep-08 19:00N 34°15' W 119°16'0 0.0
2017-Sep-08 18:30N 34°15' W 119°16'0 0.0
2017-Sep-08 18:00N 34°15' W 119°16'0 0.0
2017-Sep-08 17:30N 34°15' W 119°16'0 0.0
2017-Sep-08 17:00N 34°15' W 119°16'0 0.0
2017-Sep-08 16:30N 34°15' W 119°16'0 0.0
2017-Sep-08 16:00N 34°15' W 119°16'0 0.0
2017-Sep-08 15:30N 34°15' W 119°16'0 0.0
2017-Sep-08 15:00N 34°15' W 119°16'0 0.0
2017-Sep-08 14:30N 34°15' W 119°16'0 0.0
2017-Sep-08 14:00N 34°15' W 119°16'0 0.0
2017-Sep-08 13:30N 34°15' W 119°16'0 0.0
2017-Sep-08 13:00N 34°15' W 119°16'0 0.0
2017-Sep-08 12:30N 34°15' W 119°16'0 0.0
2017-Sep-08 11:57N 34°15' W 119°16'0 0.0
2017-Sep-08 11:28N 34°15' W 119°16'0 0.0
2017-Sep-08 10:55N 34°15' W 119°16'0 0.0
2017-Sep-08 10:30N 34°15' W 119°16'0 0.0
2017-Sep-08 10:00N 34°15' W 119°16'0 0.0
2017-Sep-08 09:27N 34°15' W 119°16'0 0.0
2017-Sep-08 08:56N 34°15' W 119°16'0 0.0
2017-Sep-08 08:30N 34°15' W 119°16'0 0.0
2017-Sep-08 08:00N 34°15' W 119°16'0 0.0
2017-Sep-08 07:28N 34°15' W 119°16'0 0.0
2017-Sep-08 07:00N 34°15' W 119°16'0 0.0
2017-Sep-08 06:30N 34°15' W 119°16'0 0.0
2017-Sep-08 05:59N 34°15' W 119°16'0 0.0
2017-Sep-08 05:29N 34°15' W 119°16'0 0.0
2017-Sep-08 04:59N 34°15' W 119°16'0 0.0
2017-Sep-08 04:29N 34°15' W 119°16'0 0.0
2017-Sep-08 03:57N 34°15' W 119°16'0 0.0
2017-Sep-08 03:30N 34°15' W 119°16'0 0.0
2017-Sep-08 03:00N 34°15' W 119°16'0 0.0
2017-Sep-08 02:29N 34°15' W 119°16'0 0.0
2017-Sep-08 01:57N 34°15' W 119°16'0 0.0
2017-Sep-08 01:30N 34°15' W 119°16'0 0.0
2017-Sep-08 01:01N 34°15' W 119°16'0 0.0
2017-Sep-08 00:29N 34°15' W 119°16'0 0.0
2017-Sep-07 23:58N 34°15' W 119°16'0 0.0
2017-Sep-07 23:30N 34°15' W 119°16'0 0.0
2017-Sep-07 22:59N 34°15' W 119°16'0 0.0
2017-Sep-07 22:29N 34°15' W 119°16'0 0.0
2017-Sep-07 22:00N 34°15' W 119°16'0 0.0
2017-Sep-07 21:30N 34°15' W 119°16'0 0.0
2017-Sep-07 20:58N 34°15' W 119°16'0 0.0
2017-Sep-07 20:30N 34°15' W 119°16'0 0.0
2017-Sep-07 19:59N 34°15' W 119°16'0 0.0
2017-Sep-07 19:29N 34°15' W 119°16'0 0.0
2017-Sep-07 18:58N 34°15' W 119°16'0 0.0
2017-Sep-07 18:29N 34°15' W 119°16'0 0.0
2017-Sep-07 17:56N 34°15' W 119°16'0 0.0
2017-Sep-07 17:29N 34°15' W 119°16'0 0.0
2017-Sep-07 17:00N 34°15' W 119°16'0 0.0
2017-Sep-07 16:27N 34°15' W 119°16'0 0.0
2017-Sep-07 16:01N 34°15' W 119°16'0 0.0
2017-Sep-07 15:28N 34°15' W 119°16'0 0.0
2017-Sep-07 14:55N 34°15' W 119°16'0 0.0
2017-Sep-07 14:30N 34°15' W 119°16'0 0.0
2017-Sep-07 13:58N 34°15' W 119°16'0 0.0
2017-Sep-07 13:22N 34°15' W 119°16'0 0.0
2017-Sep-07 13:00N 34°15' W 119°16'0 0.0
2017-Sep-07 12:30N 34°15' W 119°16'0 0.0
2017-Sep-07 11:59N 34°15' W 119°16'0 0.0
2017-Sep-07 11:29N 34°15' W 119°16'0 0.0
2017-Sep-07 11:00N 34°15' W 119°16'0 0.0
2017-Sep-07 10:28N 34°15' W 119°16'0 0.0
2017-Sep-07 10:00N 34°15' W 119°16'0 0.0
2017-Sep-07 09:31N 34°15' W 119°16'0 0.0
2017-Sep-07 09:00N 34°15' W 119°16'0 0.0
2017-Sep-07 08:30N 34°15' W 119°16'0 0.0
2017-Sep-07 07:59N 34°15' W 119°16'0 0.0
2017-Sep-07 07:29N 34°15' W 119°16'0 0.0
2017-Sep-07 07:00N 34°15' W 119°16'0 0.0
2017-Sep-07 06:30N 34°15' W 119°16'0 0.0
2017-Sep-07 05:55N 34°15' W 119°16'0 0.0
2017-Sep-07 05:27N 34°15' W 119°16'0 0.0
2017-Sep-07 04:58N 34°15' W 119°16'0 0.0
2017-Sep-07 04:30N 34°15' W 119°16'0 0.0
2017-Sep-07 03:58N 34°15' W 119°16'0 0.0
2017-Sep-07 03:29N 34°15' W 119°16'0 0.0
2017-Sep-07 02:58N 34°15' W 119°16'0 0.0
2017-Sep-07 02:29N 34°15' W 119°16'0 0.0
2017-Sep-07 01:57N 34°15' W 119°16'0 0.0
2017-Sep-07 01:29N 34°15' W 119°16'0 0.0
2017-Sep-07 00:59N 34°15' W 119°16'0 0.0
2017-Sep-07 00:28N 34°15' W 119°16'0 0.0
2017-Sep-06 23:50N 34°15' W 119°16'  

Dump ship's entire track history